createdAt,value
2023-05-08T00:00:16.393Z,16.78
2023-05-08T00:02:19.507Z,16.76
2023-05-08T00:04:22.706Z,16.76
2023-05-08T00:06:27.091Z,16.75
2023-05-08T00:08:30.177Z,16.76
2023-05-08T00:10:33.343Z,16.75
2023-05-08T00:12:36.623Z,16.74
2023-05-08T00:14:39.696Z,16.75
2023-05-08T00:16:44.201Z,16.76
2023-05-08T00:18:47.773Z,16.74
2023-05-08T00:20:50.851Z,16.73
2023-05-08T00:22:53.896Z,16.70
2023-05-08T00:24:57.014Z,16.70
2023-05-08T00:27:00.063Z,16.71
2023-05-08T00:29:05.016Z,16.73
2023-05-08T00:31:09.174Z,16.72
2023-05-08T00:33:13.652Z,16.71
2023-05-08T00:35:16.712Z,16.72
2023-05-08T00:37:19.766Z,16.71
2023-05-08T00:39:22.993Z,16.71
2023-05-08T00:41:26.268Z,16.70
2023-05-08T00:43:29.489Z,16.70
2023-05-08T00:45:39.194Z,16.70
2023-05-08T00:47:42.426Z,16.69
2023-05-08T00:49:46.948Z,16.65
2023-05-08T00:51:52.548Z,16.62
2023-05-08T00:53:55.695Z,16.61
2023-05-08T00:55:58.921Z,16.60
2023-05-08T00:58:02.159Z,16.60
2023-05-08T01:00:06.192Z,16.61
2023-05-08T01:02:09.829Z,16.61
2023-05-08T01:04:12.908Z,16.59
2023-05-08T01:06:17.333Z,16.60
2023-05-08T01:08:20.416Z,16.60
2023-05-08T01:10:24.387Z,16.61
2023-05-08T01:12:32.087Z,16.62
2023-05-08T01:14:43.393Z,16.61
2023-05-08T01:16:49.781Z,16.61
2023-05-08T01:19:03.785Z,16.60
2023-05-08T01:21:13.322Z,16.59
2023-05-08T01:23:50.781Z,16.57
2023-05-08T01:26:30.887Z,16.56
2023-05-08T01:28:53.656Z,16.55
2023-05-08T01:31:09.763Z,16.53
2023-05-08T01:33:19.796Z,16.53
2023-05-08T01:35:27.644Z,16.54
2023-05-08T01:37:35.422Z,16.54
2023-05-08T01:39:45.356Z,16.55
2023-05-08T01:42:02.052Z,16.54
2023-05-08T01:44:13.627Z,16.54
2023-05-08T01:46:21.148Z,16.53
2023-05-08T01:48:29.602Z,16.52
2023-05-08T01:50:37.058Z,16.54
2023-05-08T01:52:50.837Z,16.54
2023-05-08T01:54:58.769Z,16.52
2023-05-08T01:57:02.971Z,16.51
2023-05-08T01:59:06.707Z,16.52
2023-05-08T02:01:10.089Z,16.51
2023-05-08T02:03:15.012Z,16.51
2023-05-08T02:05:20.272Z,16.51
2023-05-08T02:07:24.228Z,16.52
2023-05-08T02:09:28.290Z,16.52
2023-05-08T02:11:33.506Z,16.52
2023-05-08T02:13:37.030Z,16.50
2023-05-08T02:15:40.972Z,16.52
2023-05-08T02:17:45.115Z,16.50
2023-05-08T02:19:48.723Z,16.50
2023-05-08T02:21:53.262Z,16.50
2023-05-08T02:23:57.625Z,16.50
2023-05-08T02:26:01.589Z,16.51
2023-05-08T02:28:05.652Z,16.51
2023-05-08T02:30:10.518Z,16.51
2023-05-08T02:32:15.577Z,16.52
2023-05-08T02:34:19.417Z,16.52
2023-05-08T02:36:23.355Z,16.52
2023-05-08T02:38:28.328Z,16.52
2023-05-08T02:40:32.579Z,16.51
2023-05-08T02:42:36.007Z,16.50
2023-05-08T02:44:39.125Z,16.50
2023-05-08T02:46:47.732Z,16.51
2023-05-08T02:48:58.087Z,16.51
2023-05-08T02:51:06.354Z,16.50
2023-05-08T02:53:12.623Z,16.50
2023-05-08T02:55:27.522Z,16.49
2023-05-08T02:57:37.586Z,16.50
2023-05-08T02:59:45.460Z,16.51
2023-05-08T03:01:53.308Z,16.50
2023-05-08T03:04:01.718Z,16.50
2023-05-08T03:06:11.341Z,16.49
2023-05-08T03:08:17.182Z,16.47
2023-05-08T03:10:23.407Z,16.48
2023-05-08T03:12:29.356Z,16.47
2023-05-08T03:14:33.643Z,16.46
2023-05-08T03:16:39.788Z,16.45
2023-05-08T03:18:44.571Z,16.44
2023-05-08T03:20:52.522Z,16.42
2023-05-08T03:22:57.089Z,16.41
2023-05-08T03:25:01.237Z,16.40
2023-05-08T03:27:06.035Z,16.41
2023-05-08T03:29:09.187Z,16.42
2023-05-08T03:31:12.649Z,16.37
2023-05-08T03:33:16.261Z,16.37
2023-05-08T03:35:19.850Z,16.37
2023-05-08T03:37:23.004Z,16.37
2023-05-08T03:39:26.513Z,16.39
2023-05-08T03:41:29.827Z,16.40
2023-05-08T03:43:34.582Z,16.40
2023-05-08T03:45:38.874Z,16.41
2023-05-08T03:47:44.311Z,16.39
2023-05-08T03:49:48.961Z,16.38
2023-05-08T03:51:54.594Z,16.35
2023-05-08T03:53:57.870Z,16.34
2023-05-08T03:56:01.884Z,16.34
2023-05-08T03:58:11.976Z,16.34
2023-05-08T04:00:23.542Z,16.33
2023-05-08T04:02:31.132Z,16.32
2023-05-08T04:04:39.838Z,16.30
2023-05-08T04:06:50.535Z,16.31
2023-05-08T04:09:05.923Z,16.33
2023-05-08T04:11:17.413Z,16.34
2023-05-08T04:13:25.525Z,16.34
2023-05-08T04:15:31.404Z,16.34
2023-05-08T04:17:39.012Z,16.36
2023-05-08T04:19:47.603Z,16.33
2023-05-08T04:21:55.642Z,16.37
2023-05-08T04:23:59.584Z,16.37
2023-05-08T04:26:05.709Z,16.37
2023-05-08T04:28:09.193Z,16.38
2023-05-08T04:30:14.541Z,16.38
2023-05-08T04:32:19.724Z,16.39
2023-05-08T04:34:22.931Z,16.38
2023-05-08T04:36:29.440Z,16.41
2023-05-08T04:38:32.930Z,16.41
2023-05-08T04:40:36.127Z,16.43
2023-05-08T04:42:42.888Z,16.42
2023-05-08T04:44:47.264Z,16.44
2023-05-08T04:46:51.125Z,16.43
2023-05-08T04:48:55.878Z,16.43
2023-05-08T04:50:59.085Z,16.43
2023-05-08T04:53:02.282Z,16.46
2023-05-08T04:55:05.907Z,16.46
2023-05-08T04:57:11.589Z,16.46
2023-05-08T04:59:16.102Z,16.51
2023-05-08T05:01:20.054Z,16.49
2023-05-08T05:03:23.424Z,16.50
2023-05-08T05:05:27.984Z,16.51
2023-05-08T05:07:31.157Z,16.52
2023-05-08T05:09:36.868Z,16.51
2023-05-08T05:11:40.687Z,16.51
2023-05-08T05:13:43.990Z,16.53
2023-05-08T05:15:47.607Z,16.54
2023-05-08T05:17:51.989Z,16.56
2023-05-08T05:19:55.203Z,16.59
2023-05-08T05:22:02.311Z,16.61
2023-05-08T05:24:07.473Z,16.62
2023-05-08T05:26:10.534Z,16.61
2023-05-08T05:28:13.714Z,16.61
2023-05-08T05:30:17.481Z,16.63
2023-05-08T05:32:20.783Z,16.64
2023-05-08T05:34:24.095Z,16.63
2023-05-08T05:36:27.204Z,16.66
2023-05-08T05:38:31.816Z,16.69
2023-05-08T05:40:35.011Z,16.71
2023-05-08T05:42:38.146Z,16.75
2023-05-08T05:44:41.250Z,16.78
2023-05-08T05:46:44.697Z,16.81
2023-05-08T05:48:48.359Z,16.82
2023-05-08T05:50:51.526Z,16.85
2023-05-08T05:52:54.695Z,16.85
2023-05-08T05:54:59.191Z,16.88
2023-05-08T05:57:02.423Z,16.89
2023-05-08T05:59:06.360Z,16.91
2023-05-08T06:01:09.575Z,16.92
2023-05-08T06:03:12.840Z,16.91
2023-05-08T06:05:16.211Z,16.94
2023-05-08T06:07:21.081Z,16.96
2023-05-08T06:09:24.185Z,16.97
2023-05-08T06:11:29.416Z,17.00
2023-05-08T06:13:32.891Z,17.02
2023-05-08T06:15:36.942Z,17.06
2023-05-08T06:17:40.227Z,17.09
2023-05-08T06:19:43.419Z,17.09
2023-05-08T06:21:46.437Z,17.10
2023-05-08T06:23:49.777Z,17.13
2023-05-08T06:25:52.978Z,17.15
2023-05-08T06:27:57.488Z,17.19
2023-05-08T06:30:00.660Z,17.22
2023-05-08T06:32:03.905Z,17.27
2023-05-08T06:34:07.098Z,17.31
2023-05-08T06:36:10.693Z,17.32
2023-05-08T06:38:13.896Z,17.28
2023-05-08T06:40:19.495Z,17.30
2023-05-08T06:42:22.598Z,17.32
2023-05-08T06:44:28.354Z,17.33
2023-05-08T06:46:31.585Z,17.36
2023-05-08T06:48:34.839Z,17.41
2023-05-08T06:50:39.370Z,17.46
2023-05-08T06:52:42.711Z,17.61
2023-05-08T06:54:45.913Z,17.57
2023-05-08T06:56:49.115Z,17.59
2023-05-08T06:59:01.052Z,17.64
2023-05-08T07:01:12.800Z,17.67
2023-05-08T07:03:16.223Z,17.73
2023-05-08T07:05:19.979Z,17.77
2023-05-08T07:07:23.711Z,17.84
2023-05-08T07:09:26.928Z,17.94
2023-05-08T07:11:30.132Z,17.99
2023-05-08T07:13:33.440Z,18.03
2023-05-08T07:15:36.782Z,18.02
2023-05-08T07:17:41.848Z,17.98
2023-05-08T07:19:45.307Z,18.01
2023-05-08T07:21:48.926Z,18.07
2023-05-08T07:23:53.841Z,18.13
2023-05-08T07:25:57.389Z,18.18
2023-05-08T07:28:01.486Z,18.19
2023-05-08T07:30:05.540Z,18.18
2023-05-08T07:32:09.701Z,18.16
2023-05-08T07:34:14.228Z,18.15
2023-05-08T07:36:17.497Z,18.16
2023-05-08T07:38:20.620Z,18.12
2023-05-08T07:40:23.958Z,18.08
2023-05-08T07:42:27.091Z,18.04
2023-05-08T07:44:40.331Z,18.05
2023-05-08T07:46:46.820Z,18.10
2023-05-08T07:48:50.032Z,18.14
2023-05-08T07:50:54.540Z,18.17
2023-05-08T07:52:57.626Z,18.16
2023-05-08T07:55:00.733Z,18.16
2023-05-08T07:57:03.845Z,18.19
2023-05-08T07:59:06.958Z,18.20
2023-05-08T08:01:10.132Z,18.17
2023-05-08T08:03:13.433Z,18.15
2023-05-08T08:05:16.960Z,18.14
2023-05-08T08:07:21.882Z,18.15
2023-05-08T08:09:25.246Z,18.10
2023-05-08T08:11:28.588Z,18.07
2023-05-08T08:13:32.764Z,18.11
2023-05-08T08:15:36.168Z,18.10
2023-05-08T08:17:39.734Z,18.04
2023-05-08T08:19:42.943Z,18.03
2023-05-08T08:21:46.581Z,18.18
2023-05-08T08:23:51.118Z,18.08
2023-05-08T08:25:54.914Z,18.05
2023-05-08T08:27:58.509Z,18.05
2023-05-08T08:30:15.927Z,18.08
2023-05-08T08:32:21.026Z,18.11
2023-05-08T08:34:24.432Z,18.10
2023-05-08T08:36:28.143Z,18.11
2023-05-08T08:38:31.307Z,18.13
2023-05-08T08:40:40.348Z,18.15
2023-05-08T08:42:43.605Z,18.16
2023-05-08T08:44:46.885Z,18.18
2023-05-08T08:46:52.888Z,18.22
2023-05-08T08:48:57.582Z,18.26
2023-05-08T08:51:04.395Z,18.29
2023-05-08T08:53:11.717Z,18.30
2023-05-08T08:55:18.070Z,18.34
2023-05-08T08:57:22.927Z,18.35
2023-05-08T08:59:27.518Z,18.40
2023-05-08T09:01:31.669Z,18.46
2023-05-08T09:03:35.090Z,18.53
2023-05-08T09:05:38.634Z,18.57
2023-05-08T09:07:43.802Z,18.61
2023-05-08T09:09:48.738Z,18.63
2023-05-08T09:11:53.464Z,18.66
2023-05-08T09:13:58.559Z,18.73
2023-05-08T09:16:01.974Z,18.76
2023-05-08T09:18:05.432Z,18.75
2023-05-08T09:20:09.774Z,18.72
2023-05-08T09:22:13.491Z,18.70
2023-05-08T09:24:16.602Z,18.64
2023-05-08T09:26:28.323Z,18.64
2023-05-08T09:28:31.346Z,18.67
2023-05-08T09:30:49.822Z,18.67
2023-05-08T09:33:02.683Z,18.76
2023-05-08T09:35:07.177Z,18.82
2023-05-08T09:37:14.276Z,18.83
2023-05-08T09:39:23.701Z,18.87
2023-05-08T09:41:26.780Z,18.96
2023-05-08T09:43:29.810Z,19.04
2023-05-08T09:45:35.458Z,19.11
2023-05-08T09:47:39.691Z,19.13
2023-05-08T09:49:57.767Z,19.28
2023-05-08T09:52:01.008Z,19.40
2023-05-08T09:54:06.530Z,19.48
2023-05-08T09:56:09.908Z,19.51
2023-05-08T09:58:13.074Z,19.49
2023-05-08T10:00:17.157Z,19.48
2023-05-08T10:02:21.771Z,19.49
2023-05-08T10:04:34.245Z,19.53
2023-05-08T10:06:37.367Z,19.50
2023-05-08T10:08:40.477Z,19.42
2023-05-08T10:10:43.617Z,19.50
2023-05-08T10:12:46.813Z,19.51
2023-05-08T10:14:50.274Z,19.55
2023-05-08T10:16:54.497Z,19.59
2023-05-08T10:19:03.014Z,19.48
2023-05-08T10:21:08.185Z,19.33
2023-05-08T10:23:15.101Z,19.29
2023-05-08T10:25:19.098Z,19.21
2023-05-08T10:27:28.082Z,19.20
2023-05-08T10:29:35.106Z,19.24
2023-05-08T10:31:40.820Z,19.20
2023-05-08T10:33:46.455Z,19.23
2023-05-08T10:35:50.963Z,19.26
2023-05-08T10:37:55.254Z,19.22
2023-05-08T10:39:59.475Z,19.20
2023-05-08T10:42:03.022Z,19.23
2023-05-08T10:44:06.774Z,19.31
2023-05-08T10:46:14.612Z,19.38
2023-05-08T10:48:24.779Z,19.48
2023-05-08T10:50:38.673Z,19.47
2023-05-08T10:52:54.969Z,19.45
2023-05-08T10:55:17.582Z,19.46
2023-05-08T10:57:21.501Z,19.46
2023-05-08T10:59:24.586Z,19.50
2023-05-08T11:01:28.342Z,19.57
2023-05-08T11:03:33.305Z,19.60
2023-05-08T11:05:46.990Z,19.61
2023-05-08T11:07:58.272Z,19.62
2023-05-08T11:10:08.555Z,19.63
2023-05-08T11:12:21.933Z,19.64
2023-05-08T11:14:25.504Z,19.63
2023-05-08T11:17:05.939Z,19.64
2023-05-08T11:19:18.557Z,19.64
2023-05-08T11:21:22.621Z,19.68
2023-05-08T11:23:28.090Z,19.75
2023-05-08T11:25:43.511Z,19.79
2023-05-08T11:28:10.598Z,19.83
2023-05-08T11:30:36.030Z,19.82
2023-05-08T11:33:14.049Z,19.72
2023-05-08T11:35:57.781Z,19.58
2023-05-08T11:38:16.281Z,19.58
2023-05-08T11:40:49.789Z,19.60
2023-05-08T11:42:53.036Z,19.51
2023-05-08T11:45:05.796Z,19.44
2023-05-08T11:47:09.938Z,19.41
2023-05-08T11:49:15.509Z,19.41
2023-05-08T11:51:19.742Z,19.42
2023-05-08T11:53:22.874Z,19.44
2023-05-08T11:55:26.178Z,19.49
2023-05-08T11:57:31.647Z,19.42
2023-05-08T11:59:37.071Z,19.40
2023-05-08T12:01:40.366Z,19.46
2023-05-08T12:03:43.615Z,19.56
2023-05-08T12:05:46.948Z,19.63
2023-05-08T12:07:50.138Z,19.60
2023-05-08T12:09:53.354Z,19.65
2023-05-08T12:11:58.639Z,19.60
2023-05-08T12:14:03.111Z,19.63
2023-05-08T12:16:06.801Z,19.68
2023-05-08T12:18:09.944Z,19.74
2023-05-08T12:20:15.168Z,19.85
2023-05-08T12:22:18.709Z,19.93
2023-05-08T12:24:24.347Z,19.90
2023-05-08T12:26:28.255Z,19.92
2023-05-08T12:28:32.520Z,19.95
2023-05-08T12:30:37.359Z,19.99
2023-05-08T12:32:41.970Z,20.01
2023-05-08T12:34:45.213Z,20.03
2023-05-08T12:36:48.299Z,20.02
2023-05-08T12:38:52.157Z,20.01
2023-05-08T12:40:56.134Z,20.06
2023-05-08T12:43:02.217Z,20.14
2023-05-08T12:45:06.320Z,20.21
2023-05-08T12:47:11.219Z,20.21
2023-05-08T12:49:14.370Z,20.14
2023-05-08T12:51:17.522Z,20.18
2023-05-08T12:53:22.488Z,20.22
2023-05-08T12:55:29.377Z,20.14
2023-05-08T12:57:32.554Z,20.17
2023-05-08T12:59:35.843Z,20.16
2023-05-08T13:01:39.053Z,20.27
2023-05-08T13:03:43.577Z,20.37
2023-05-08T13:05:46.774Z,20.39
2023-05-08T13:07:50.424Z,20.44
2023-05-08T13:10:02.211Z,20.43
2023-05-08T13:12:06.721Z,20.38
2023-05-08T13:14:09.909Z,20.34
2023-05-08T13:16:13.100Z,20.25
2023-05-08T13:18:17.141Z,20.24
2023-05-08T13:20:24.161Z,20.25
2023-05-08T13:22:27.319Z,20.13
2023-05-08T13:24:30.433Z,20.10
2023-05-08T13:26:33.489Z,20.12
2023-05-08T13:28:36.444Z,20.09
2023-05-08T13:30:39.965Z,20.13
2023-05-08T13:32:43.050Z,20.16
2023-05-08T13:34:50.175Z,20.15
2023-05-08T13:36:56.066Z,20.17
2023-05-08T13:38:59.087Z,20.15
2023-05-08T13:41:02.234Z,20.15
2023-05-08T13:43:05.330Z,20.20
2023-05-08T13:45:10.677Z,20.14
2023-05-08T13:47:13.863Z,20.10
2023-05-08T13:49:19.199Z,19.92
2023-05-08T13:51:22.231Z,19.91
2023-05-08T13:53:26.718Z,19.98
2023-05-08T13:55:29.785Z,19.99
2023-05-08T13:57:32.921Z,20.04
2023-05-08T13:59:35.993Z,20.07
2023-05-08T14:01:39.294Z,20.04
2023-05-08T14:03:42.419Z,19.92
2023-05-08T14:05:45.543Z,19.91
2023-05-08T14:07:48.653Z,19.90
2023-05-08T14:09:53.401Z,19.76
2023-05-08T14:11:58.565Z,19.78
2023-05-08T14:14:01.698Z,19.83
2023-05-08T14:16:08.178Z,19.87
2023-05-08T14:18:11.339Z,19.86
2023-05-08T14:20:14.640Z,19.86
2023-05-08T14:22:17.809Z,19.88
2023-05-08T14:24:20.816Z,19.83
2023-05-08T14:26:25.221Z,19.69
2023-05-08T14:28:28.367Z,19.57
2023-05-08T14:30:31.477Z,19.43
2023-05-08T14:32:34.573Z,19.48
2023-05-08T14:34:37.844Z,19.53
2023-05-08T14:36:41.439Z,19.54
2023-05-08T14:38:44.480Z,19.56
2023-05-08T14:40:50.810Z,19.61
2023-05-08T14:42:55.406Z,19.64
2023-05-08T14:44:58.448Z,19.68
2023-05-08T14:47:01.599Z,19.80
2023-05-08T14:49:05.279Z,19.84
2023-05-08T14:51:08.421Z,19.83
2023-05-08T14:53:11.631Z,19.88
2023-05-08T14:55:20.645Z,19.93
2023-05-08T14:57:24.151Z,19.89
2023-05-08T14:59:28.758Z,19.95
2023-05-08T15:01:31.866Z,20.02
2023-05-08T15:03:35.138Z,20.09
2023-05-08T15:05:40.944Z,20.12
2023-05-08T15:07:44.131Z,20.16
2023-05-08T15:09:47.915Z,20.18
2023-05-08T15:11:51.197Z,20.16
2023-05-08T15:13:54.264Z,20.15
2023-05-08T15:15:59.235Z,20.18
2023-05-08T15:18:02.384Z,20.21
2023-05-08T15:20:06.334Z,20.19
2023-05-08T15:22:09.457Z,20.15
2023-05-08T15:24:12.601Z,20.19
2023-05-08T15:26:15.848Z,20.23
2023-05-08T15:28:18.951Z,20.27
2023-05-08T15:30:22.792Z,20.31
2023-05-08T15:32:27.453Z,20.35
2023-05-08T15:34:32.797Z,20.36
2023-05-08T15:36:36.401Z,20.36
2023-05-08T15:38:39.435Z,20.37
2023-05-08T15:40:42.568Z,20.31
2023-05-08T15:42:45.676Z,20.28
2023-05-08T15:46:54.752Z,20.18
2023-05-08T15:49:00.499Z,20.20
2023-05-08T15:51:05.075Z,20.21
2023-05-08T15:53:08.228Z,20.23
2023-05-08T15:55:11.891Z,20.20
2023-05-08T15:57:15.273Z,20.19
2023-05-08T15:59:18.392Z,20.18
2023-05-08T16:01:21.942Z,20.21
2023-05-08T16:03:25.405Z,20.19
2023-05-08T16:05:29.997Z,20.20
2023-05-08T16:07:33.063Z,20.19
2023-05-08T16:09:36.143Z,20.20
2023-05-08T16:11:39.226Z,20.23
2023-05-08T16:13:42.403Z,20.24
2023-05-08T16:15:45.649Z,20.24
2023-05-08T16:17:48.987Z,20.24
2023-05-08T16:19:52.086Z,20.19
2023-05-08T16:21:56.563Z,20.15
2023-05-08T16:23:59.841Z,20.07
2023-05-08T16:26:03.126Z,20.02
2023-05-08T16:28:06.718Z,20.00
2023-05-08T16:30:11.098Z,19.95
2023-05-08T16:32:14.209Z,19.88
2023-05-08T16:34:17.323Z,19.87
2023-05-08T16:36:20.462Z,19.84
2023-05-08T16:38:25.108Z,19.82
2023-05-08T16:40:28.200Z,19.80
2023-05-08T16:42:31.287Z,19.80
2023-05-08T16:44:34.702Z,19.81
2023-05-08T16:46:38.003Z,19.81
2023-05-08T16:48:42.232Z,19.74
2023-05-08T16:50:45.340Z,19.72
2023-05-08T16:52:48.550Z,19.67
2023-05-08T16:54:53.040Z,19.61
2023-05-08T16:56:56.231Z,19.56
2023-05-08T16:59:01.347Z,19.57
2023-05-08T17:01:04.474Z,19.54
2023-05-08T17:03:07.687Z,19.53
2023-05-08T17:05:11.495Z,19.49
2023-05-08T17:07:15.118Z,19.47
2023-05-08T17:09:18.567Z,19.43
2023-05-08T17:11:23.066Z,19.38
2023-05-08T17:13:26.298Z,19.37
2023-05-08T17:15:29.424Z,19.37
2023-05-08T17:17:32.641Z,19.37
2023-05-08T17:19:36.219Z,19.39
2023-05-08T17:21:39.264Z,19.42
2023-05-08T17:23:42.541Z,19.40
2023-05-08T17:25:45.678Z,19.42
2023-05-08T17:27:50.197Z,19.44
2023-05-08T17:29:53.376Z,19.43
2023-05-08T17:31:56.493Z,19.42
2023-05-08T17:33:59.806Z,19.43
2023-05-08T17:36:03.291Z,19.41
2023-05-08T17:38:06.318Z,19.38
2023-05-08T17:40:11.008Z,19.38
2023-05-08T17:42:14.144Z,19.39
2023-05-08T17:44:18.870Z,19.41
2023-05-08T17:46:22.707Z,19.40
2023-05-08T17:48:26.031Z,19.39
2023-05-08T17:50:29.250Z,19.37
2023-05-08T17:52:32.389Z,19.33
2023-05-08T17:54:35.630Z,19.31
2023-05-08T17:56:38.835Z,19.30
2023-05-08T17:58:42.069Z,19.30
2023-05-08T18:00:46.594Z,19.26
2023-05-08T18:02:49.650Z,19.23
2023-05-08T18:04:52.927Z,19.20
2023-05-08T18:06:56.156Z,19.18
2023-05-08T18:08:59.225Z,19.14
2023-05-08T18:11:02.360Z,19.13
2023-05-08T18:13:05.550Z,19.11
2023-05-08T18:15:09.598Z,19.08
2023-05-08T18:17:16.729Z,19.05
2023-05-08T18:19:19.934Z,19.02
2023-05-08T18:21:23.164Z,18.97
2023-05-08T18:23:26.311Z,18.95
2023-05-08T18:25:29.424Z,18.94
2023-05-08T18:27:34.351Z,18.93
2023-05-08T18:29:37.547Z,18.89
2023-05-08T18:31:40.714Z,18.86
2023-05-08T18:33:45.191Z,18.84
2023-05-08T18:35:48.348Z,18.81
2023-05-08T18:37:51.624Z,18.80
2023-05-08T18:39:54.813Z,18.79
2023-05-08T18:41:58.011Z,18.77
2023-05-08T18:44:04.992Z,18.73
2023-05-08T18:46:12.409Z,18.71
2023-05-08T18:48:15.719Z,18.69
2023-05-08T18:50:20.262Z,18.68
2023-05-08T18:52:23.391Z,18.66
2023-05-08T18:54:27.089Z,18.63
2023-05-08T18:56:30.746Z,18.63
2023-05-08T18:58:33.985Z,18.62
2023-05-08T19:00:37.167Z,18.59
2023-05-08T19:02:41.104Z,18.55
2023-05-08T19:04:44.409Z,18.53
2023-05-08T19:06:49.027Z,18.52
2023-05-08T19:08:52.711Z,18.47
2023-05-08T19:10:55.792Z,18.43
2023-05-08T19:13:02.066Z,18.41
2023-05-08T19:15:08.649Z,18.39
2023-05-08T19:17:11.710Z,18.38
2023-05-08T19:19:14.752Z,18.36
2023-05-08T19:21:17.820Z,18.33
2023-05-08T19:23:22.392Z,18.30
2023-05-08T19:25:27.998Z,18.28
2023-05-08T19:27:32.119Z,18.22
2023-05-08T19:29:35.612Z,18.21
2023-05-08T19:31:38.833Z,18.15
2023-05-08T19:33:42.113Z,18.13
2023-05-08T19:35:45.287Z,18.11
2023-05-08T19:37:48.433Z,18.10
2023-05-08T19:39:52.929Z,18.09
2023-05-08T19:41:56.320Z,18.09
2023-05-08T19:43:59.467Z,18.08
2023-05-08T19:46:02.718Z,18.05
2023-05-08T19:48:10.509Z,18.02
2023-05-08T19:50:19.336Z,18.00
2023-05-08T19:52:22.522Z,17.94
2023-05-08T19:54:25.656Z,17.91
2023-05-08T19:56:30.250Z,17.89
2023-05-08T19:58:33.366Z,17.87
2023-05-08T20:00:36.575Z,17.84
2023-05-08T20:02:40.081Z,17.81
2023-05-08T20:05:08.022Z,17.77
2023-05-08T20:07:07.235Z,17.72
2023-05-08T20:09:11.542Z,17.69
2023-05-08T20:11:14.689Z,17.67
2023-05-08T20:13:19.244Z,17.66
2023-05-08T20:15:22.378Z,17.64
2023-05-08T20:17:25.495Z,17.62
2023-05-08T20:19:28.678Z,17.59
2023-05-08T20:21:32.462Z,17.56
2023-05-08T20:23:35.637Z,17.55
2023-05-08T20:25:38.888Z,17.53
2023-05-08T20:27:43.156Z,17.52
2023-05-08T20:29:47.744Z,17.50
2023-05-08T20:31:51.077Z,17.47
2023-05-08T20:33:54.477Z,17.47
2023-05-08T20:35:57.659Z,17.43
2023-05-08T20:38:00.780Z,17.41
2023-05-08T20:40:06.333Z,17.35
2023-05-08T20:42:09.650Z,17.29
2023-05-08T20:44:17.016Z,17.23
2023-05-08T20:46:21.696Z,17.17
2023-05-08T20:48:25.088Z,17.12
2023-05-08T20:50:28.401Z,17.08
2023-05-08T20:52:32.440Z,17.07
2023-05-08T20:54:36.164Z,17.05
2023-05-08T20:56:39.598Z,17.05
2023-05-08T20:58:42.607Z,17.03
2023-05-08T21:00:46.009Z,17.00
2023-05-08T21:02:50.492Z,16.99
2023-05-08T21:04:53.722Z,16.98
2023-05-08T21:06:56.781Z,16.98
2023-05-08T21:08:59.944Z,16.99
2023-05-08T21:11:03.473Z,16.98
2023-05-08T21:13:06.636Z,16.97
2023-05-08T21:15:10.177Z,16.97
2023-05-08T21:17:13.217Z,16.98
2023-05-08T21:19:17.779Z,16.97
2023-05-08T21:21:20.860Z,16.95
2023-05-08T21:23:23.971Z,16.95
2023-05-08T21:25:27.246Z,16.98
2023-05-08T21:27:30.325Z,17.01
2023-05-08T21:29:33.432Z,17.01
2023-05-08T21:31:36.602Z,17.01
2023-05-08T21:33:39.651Z,17.00
2023-05-08T21:35:44.440Z,16.98
2023-05-08T21:37:47.797Z,16.98
2023-05-08T21:39:51.014Z,16.99
2023-05-08T21:41:54.100Z,16.98
2023-05-08T21:43:57.368Z,16.98
2023-05-08T21:46:00.457Z,16.97
2023-05-08T21:48:03.930Z,16.95
2023-05-08T21:50:08.344Z,16.93
2023-05-08T21:52:12.805Z,16.94
2023-05-08T21:54:15.972Z,16.91
2023-05-08T21:56:19.094Z,16.89
2023-05-08T21:58:22.202Z,16.89
2023-05-08T22:00:27.606Z,16.83
2023-05-08T22:02:30.809Z,16.78
2023-05-08T22:04:34.195Z,16.74
2023-05-08T22:06:37.255Z,16.75
2023-05-08T22:08:41.659Z,16.71
2023-05-08T22:10:44.991Z,16.66
2023-05-08T22:12:48.257Z,16.62
2023-05-08T22:14:51.485Z,16.60
2023-05-08T22:16:54.477Z,16.60
2023-05-08T22:18:57.574Z,16.59
2023-05-08T22:21:00.680Z,16.56
2023-05-08T22:23:03.770Z,16.50
2023-05-08T22:25:09.681Z,16.49
2023-05-08T22:27:12.899Z,16.47
2023-05-08T22:29:16.900Z,16.46
2023-05-08T22:31:20.004Z,16.46
2023-05-08T22:33:23.044Z,16.45
2023-05-08T22:35:27.894Z,16.47
2023-05-08T22:37:30.927Z,16.47
2023-05-08T22:39:33.972Z,16.47
2023-05-08T22:41:38.708Z,16.46
2023-05-08T22:43:41.748Z,16.45
2023-05-08T22:45:44.867Z,16.44
2023-05-08T22:47:48.016Z,16.45
2023-05-08T22:49:51.365Z,16.44
2023-05-08T22:51:54.460Z,16.45
2023-05-08T22:53:57.516Z,16.43
2023-05-08T22:56:00.510Z,16.42
2023-05-08T22:58:05.267Z,16.35
2023-05-08T23:00:11.512Z,16.32
2023-05-08T23:02:14.708Z,16.31
2023-05-08T23:04:17.759Z,16.32
2023-05-08T23:06:20.809Z,16.33
2023-05-08T23:08:23.932Z,16.33
2023-05-08T23:10:27.059Z,16.31
2023-05-08T23:12:30.130Z,16.30
2023-05-08T23:14:34.546Z,16.28
2023-05-08T23:16:37.642Z,16.28
2023-05-08T23:18:41.245Z,16.27
2023-05-08T23:20:44.327Z,16.26
2023-05-08T23:22:47.328Z,16.26
2023-05-08T23:24:50.534Z,16.26
2023-05-08T23:26:53.594Z,16.26
2023-05-08T23:28:56.609Z,16.27
2023-05-08T23:31:01.011Z,16.23
2023-05-08T23:33:04.342Z,16.22
2023-05-08T23:35:08.495Z,16.21
2023-05-08T23:37:11.525Z,16.20
2023-05-08T23:39:14.519Z,16.19
2023-05-08T23:41:17.541Z,16.20
2023-05-08T23:43:20.557Z,16.23
2023-05-08T23:45:23.501Z,16.23
2023-05-08T23:47:28.027Z,16.23
2023-05-08T23:49:31.045Z,16.18
2023-05-08T23:51:34.038Z,16.16
2023-05-08T23:53:37.103Z,16.17
2023-05-08T23:55:40.216Z,16.16
2023-05-08T23:57:43.244Z,16.14
2023-05-08T23:59:46.230Z,16.12
